Time;durP1;ratioP1;P1;durP2;ratioP2;P2;SDS_P1;SDS_P2;PMS_P1;PMS_P2;Temp;Humidity;BMP_temperature;BMP_pressure;BME280_temperature;BME280_humidity;BME280_pressure;Samples;Min_cycle;Max_cycle;Signal;HPM_P1;HPM_P2
2023/09/13 00:02:17;;;;;;;4.65;4.15;;;24.30;64.20;25.90;101147.00;;;;5093559;28;20259;-85
2023/09/13 00:04:44;;;;;;;5.80;4.75;;;24.30;64.30;25.90;101150.00;;;;5108862;28;20209;-86
2023/09/13 00:07:12;;;;;;;5.03;4.50;;;24.30;64.30;25.90;101154.00;;;;5105497;28;20217;-85
2023/09/13 00:09:41;;;;;;;4.35;3.95;;;24.30;64.30;25.90;101154.00;;;;5107584;28;20190;-85
2023/09/13 00:12:08;;;;;;;5.00;4.47;;;24.20;64.30;25.90;101159.00;;;;5110351;28;20649;-84
2023/09/13 00:14:35;;;;;;;5.35;4.28;;;24.20;64.40;25.90;101160.00;;;;5110270;28;20201;-86
2023/09/13 00:17:02;;;;;;;5.20;4.15;;;24.20;64.40;25.80;101156.00;;;;5111500;28;20208;-86
2023/09/13 00:19:31;;;;;;;6.15;4.32;;;24.20;64.50;25.80;101153.00;;;;5111814;27;20204;-86
2023/09/13 00:21:58;;;;;;;5.65;5.13;;;24.20;64.70;25.80;101158.00;;;;5097050;28;20197;-85
2023/09/13 00:24:25;;;;;;;4.07;3.70;;;24.20;64.70;25.80;101157.00;;;;5109461;28;20202;-85
2023/09/13 00:26:52;;;;;;;4.10;3.70;;;24.20;65.40;25.80;101153.00;;;;5109752;28;20217;-86
2023/09/13 00:29:20;;;;;;;6.07;3.60;;;24.20;64.80;25.80;101152.00;;;;5103135;28;20199;-86
2023/09/13 00:31:47;;;;;;;4.95;3.90;;;24.20;64.90;25.80;101153.00;;;;5105740;28;20212;-85
2023/09/13 00:34:14;;;;;;;4.80;3.97;;;24.20;64.80;25.80;101153.00;;;;5091940;28;20202;-85
2023/09/13 00:36:43;;;;;;;5.75;5.10;;;24.20;64.90;25.80;101149.00;;;;5095596;28;20288;-86
2023/09/13 00:39:10;;;;;;;5.63;4.63;;;24.20;65.00;25.80;101154.00;;;;5108035;28;20205;-86
2023/09/13 00:41:37;;;;;;;7.97;5.00;;;24.20;65.00;25.80;101148.00;;;;5097883;28;20288;-85
2023/09/13 00:44:05;;;;;;;4.90;4.07;;;24.20;65.00;25.80;101145.00;;;;5110035;28;20197;-85
2023/09/13 00:46:34;;;;;;;5.53;4.50;;;24.20;65.00;25.80;101145.00;;;;5109181;28;20217;-86
2023/09/13 00:49:02;;;;;;;4.55;3.67;;;24.20;65.00;25.80;101142.00;;;;5097186;28;20202;-86
2023/09/13 00:51:30;;;;;;;6.22;4.93;;;24.20;65.00;25.80;101139.00;;;;5109862;28;20206;-87
2023/09/13 00:54:04;;;;;;;6.82;5.30;;;24.20;65.00;25.80;101135.00;;;;5100364;28;20591;-85
2023/09/13 00:56:33;;;;;;;5.60;4.35;;;24.10;64.90;25.80;101144.00;;;;5101853;28;20293;-85
2023/09/13 00:59:01;;;;;;;5.40;4.78;;;24.10;65.20;25.80;101147.00;;;;5107062;28;20202;-85
2023/09/13 01:01:31;;;;;;;6.15;4.63;;;24.20;64.90;25.70;101151.00;;;;5095602;28;20221;-85
2023/09/13 01:03:59;;;;;;;6.53;5.20;;;24.10;64.90;25.80;101153.00;;;;5109574;28;20674;-86
2023/09/13 01:06:28;;;;;;;5.72;4.93;;;24.10;64.80;25.70;101150.00;;;;5107530;28;20640;-86
2023/09/13 01:08:56;;;;;;;7.10;4.63;;;24.10;64.80;25.70;101152.00;;;;5107956;28;20193;-87
2023/09/13 01:11:24;;;;;;;5.97;4.45;;;24.00;64.80;25.70;101147.00;;;;5098095;28;20225;-86
2023/09/13 01:13:51;;;;;;;5.22;3.90;;;24.10;64.90;25.70;101136.00;;;;5089383;28;20209;-86
2023/09/13 01:16:31;;;;;;;5.45;4.70;;;24.00;64.80;25.60;101144.00;;;;5098798;28;20193;-85
2023/09/13 01:19:21;;;;;;;4.53;4.13;;;24.00;65.10;25.50;101137.00;;;;5092552;28;20186;-85
2023/09/13 01:22:15;;;;;;;5.15;3.97;;;24.00;65.20;25.50;101138.00;;;;5097843;28;20208;-85
2023/09/13 01:25:22;;;;;;;5.35;4.85;;;24.00;65.40;25.50;101142.00;;;;5108168;28;20206;-85
2023/09/13 01:28:12;;;;;;;5.93;4.55;;;24.00;65.60;25.50;101145.00;;;;5089170;28;20229;-85
2023/09/13 01:30:43;;;;;;;4.70;4.30;;;24.00;65.30;25.60;101149.00;;;;5108794;28;20841;-85
2023/09/13 01:33:10;;;;;;;5.20;4.68;;;23.90;65.00;25.60;101144.00;;;;5102754;28;20202;-85
2023/09/13 01:35:37;;;;;;;6.35;4.85;;;23.90;65.10;25.60;101140.00;;;;5088461;28;20182;-85
2023/09/13 01:38:04;;;;;;;12.65;4.55;;;23.90;65.20;25.60;101143.00;;;;5088837;28;20570;-85
2023/09/13 01:40:37;;;;;;;5.95;4.93;;;23.90;65.20;25.50;101140.00;;;;5104215;28;20200;-84
2023/09/13 01:43:05;;;;;;;5.32;4.82;;;23.90;65.30;25.60;101143.00;;;;5104515;28;20318;-84
2023/09/13 01:45:34;;;;;;;5.43;4.63;;;23.90;65.40;25.50;101137.00;;;;5089207;28;20206;-85
2023/09/13 01:48:04;;;;;;;6.40;5.03;;;23.90;65.40;25.50;101141.00;;;;5106230;28;20306;-85
2023/09/13 01:50:32;;;;;;;7.72;4.45;;;23.90;65.20;25.50;101137.00;;;;5096842;28;20202;-84
2023/09/13 01:53:03;;;;;;;6.95;4.60;;;23.90;65.30;25.50;101136.00;;;;5106734;28;20200;-85
2023/09/13 01:55:30;;;;;;;5.95;5.30;;;23.90;65.40;25.50;101144.00;;;;5108154;28;20225;-85
2023/09/13 01:57:57;;;;;;;8.30;4.80;;;23.80;65.30;25.50;101141.00;;;;5108621;28;20585;-85
2023/09/13 02:00:24;;;;;;;6.82;5.68;;;23.90;65.30;25.50;101145.00;;;;5093558;28;20229;-84
2023/09/13 02:02:51;;;;;;;4.55;4.15;;;23.90;65.40;25.50;101148.00;;;;5097557;27;20198;-86
2023/09/13 02:05:20;;;;;;;6.95;4.72;;;23.80;65.40;25.50;101144.00;;;;5111213;28;20205;-85
2023/09/13 02:07:46;;;;;;;5.03;4.53;;;23.90;65.50;25.50;101146.00;;;;5109737;28;20227;-86
2023/09/13 02:10:14;;;;;;;5.97;4.97;;;23.80;65.40;25.50;101144.00;;;;5102338;28;20663;-85
2023/09/13 02:12:41;;;;;;;8.68;5.18;;;23.80;65.40;25.50;101145.00;;;;5095810;28;20283;-86
2023/09/13 02:15:10;;;;;;;6.40;5.28;;;23.80;65.40;25.40;101138.00;;;;5107795;28;20204;-84
2023/09/13 02:17:37;;;;;;;5.28;4.65;;;23.80;65.40;25.40;101144.00;;;;5107375;28;20212;-85
2023/09/13 02:20:05;;;;;;;7.55;4.63;;;23.80;65.40;25.40;101138.00;;;;5101560;28;20198;-85
2023/09/13 02:22:33;;;;;;;5.10;4.32;;;23.80;65.40;25.40;101143.00;;;;5099429;28;20656;-86
2023/09/13 02:25:00;;;;;;;5.32;4.60;;;23.80;65.50;25.40;101148.00;;;;5095595;28;20201;-86
2023/09/13 02:27:27;;;;;;;5.68;4.75;;;23.80;65.40;25.40;101156.00;;;;5087530;28;20690;-86
2023/09/13 02:29:54;;;;;;;5.50;4.88;;;23.80;65.50;25.40;101157.00;;;;5098130;28;20205;-85
2023/09/13 02:32:21;;;;;;;7.70;5.18;;;23.70;65.30;25.40;101157.00;;;;5107688;28;20198;-85
2023/09/13 02:34:49;;;;;;;7.35;4.65;;;23.80;65.60;25.30;101152.00;;;;5107571;28;20244;-85
2023/09/13 02:37:16;;;;;;;8.75;4.22;;;23.70;65.50;25.40;101159.00;;;;5101030;28;20205;-85
2023/09/13 02:39:45;;;;;;;4.30;3.92;;;23.70;65.60;25.30;101157.00;;;;5101169;28;20193;-86
2023/09/13 02:42:12;;;;;;;5.03;4.53;;;23.70;65.60;25.30;101163.00;;;;5105058;28;20190;-85
2023/09/13 02:44:40;;;;;;;6.18;5.10;;;23.70;65.70;25.30;101164.00;;;;5093213;28;20194;-84
2023/09/13 02:47:07;;;;;;;10.40;5.32;;;23.70;65.80;25.30;101161.00;;;;5105622;28;20191;-85
2023/09/13 02:49:34;;;;;;;8.38;6.10;;;23.60;65.80;25.30;101164.00;;;;5111362;28;20186;-85
2023/09/13 02:52:01;;;;;;;7.35;5.95;;;23.70;65.80;25.30;101164.00;;;;5108861;28;20189;-85
2023/09/13 02:54:28;;;;;;;6.47;5.82;;;23.60;65.90;25.30;101164.00;;;;5110828;27;20213;-85
2023/09/13 02:56:56;;;;;;;7.97;6.55;;;23.60;65.90;25.30;101160.00;;;;5110420;28;20197;-85
2023/09/13 02:59:23;;;;;;;7.90;6.30;;;23.70;66.00;25.30;101159.00;;;;5111998;28;20197;-86
2023/09/13 03:01:51;;;;;;;9.23;7.13;;;23.70;66.00;25.30;101158.00;;;;5112507;28;20209;-85
2023/09/13 03:04:18;;;;;;;8.02;6.57;;;23.70;66.00;25.30;101168.00;;;;5111814;28;20193;-84
2023/09/13 03:06:45;;;;;;;6.95;6.22;;;23.70;66.00;25.30;101166.00;;;;5111558;28;20186;-86
2023/09/13 03:09:12;;;;;;;6.95;5.57;;;23.70;66.10;25.30;101168.00;;;;5107134;28;20590;-85
2023/09/13 03:11:39;;;;;;;7.78;6.97;;;23.70;66.10;25.30;101165.00;;;;5091715;28;20991;-85
2023/09/13 03:14:07;;;;;;;6.93;6.07;;;23.70;66.20;25.30;101167.00;;;;5091969;28;20668;-85
2023/09/13 03:16:34;;;;;;;8.20;5.97;;;23.70;66.20;25.30;101173.00;;;;5102427;28;20206;-85
2023/09/13 03:19:01;;;;;;;10.15;7.13;;;23.70;66.30;25.30;101166.00;;;;5105990;28;20189;-85
2023/09/13 03:21:28;;;;;;;9.65;6.95;;;23.70;66.30;25.30;101172.00;;;;5109133;28;20198;-85
2023/09/13 03:23:55;;;;;;;11.05;7.75;;;23.70;66.30;25.30;101161.00;;;;5096194;28;20265;-85
2023/09/13 03:26:27;;;;;;;8.75;7.22;;;23.70;66.30;25.30;101168.00;;;;5103394;28;20202;-86
2023/09/13 03:28:56;;;;;;;12.30;6.13;;;23.70;66.50;25.30;101173.00;;;;5106982;28;20630;-85
2023/09/13 03:31:26;;;;;;;12.30;8.13;;;23.70;66.30;25.30;101154.00;;;;5111201;28;20556;-85
2023/09/13 03:33:55;;;;;;;10.15;7.53;;;23.70;66.40;25.30;101169.00;;;;5108429;28;20201;-85
2023/09/13 03:36:23;;;;;;;10.05;7.95;;;23.70;66.30;25.30;101170.00;;;;5109813;28;20201;-85
2023/09/13 03:38:50;;;;;;;11.15;8.45;;;23.70;66.30;25.30;101169.00;;;;5108709;28;20202;-85
2023/09/13 03:41:21;;;;;;;11.60;8.40;;;23.70;66.30;25.30;101168.00;;;;5108614;28;20193;-85
2023/09/13 03:43:49;;;;;;;12.43;8.25;;;23.70;66.30;25.30;101174.00;;;;5110475;28;20194;-84
2023/09/13 03:46:16;;;;;;;11.90;9.23;;;23.70;66.30;25.30;101177.00;;;;5111437;28;20221;-84
2023/09/13 03:48:45;;;;;;;11.05;8.60;;;23.70;66.30;25.30;101168.00;;;;5102555;28;20225;-84
2023/09/13 03:51:12;;;;;;;10.68;9.02;;;23.70;66.40;25.30;101167.00;;;;5107803;28;20204;-85
2023/09/13 03:53:39;;;;;;;11.32;8.82;;;23.70;66.60;25.30;101169.00;;;;5098664;28;20668;-85
2023/09/13 03:56:07;;;;;;;11.38;9.50;;;23.70;66.50;25.30;101173.00;;;;5108899;28;20197;-86
2023/09/13 03:58:36;;;;;;;10.75;9.40;;;23.60;66.40;25.30;101178.00;;;;5104216;28;20217;-85
2023/09/13 04:01:04;;;;;;;12.63;9.70;;;23.60;66.50;25.30;101169.00;;;;5101759;28;20234;-85
2023/09/13 04:03:32;;;;;;;13.80;10.75;;;23.70;66.60;25.30;101172.00;;;;5108343;28;20282;-85
2023/09/13 04:06:00;;;;;;;16.10;10.98;;;23.60;66.50;25.20;101175.00;;;;5106493;28;20247;-84
2023/09/13 04:08:28;;;;;;;13.85;11.35;;;23.60;66.40;25.20;101173.00;;;;5107507;28;20702;-86
2023/09/13 04:10:55;;;;;;;15.00;11.10;;;23.60;66.40;25.20;101175.00;;;;5103555;28;20214;-85
2023/09/13 04:13:22;;;;;;;17.65;12.52;;;23.60;66.40;25.20;101171.00;;;;5099468;28;20190;-85
2023/09/13 04:15:50;;;;;;;19.33;13.23;;;23.60;66.40;25.10;101167.00;;;;5101637;28;20652;-84
2023/09/13 04:18:17;;;;;;;15.70;12.70;;;23.60;66.40;25.10;101166.00;;;;5111188;27;20236;-84
2023/09/13 04:20:46;;;;;;;18.50;13.75;;;23.60;66.40;25.10;101158.00;;;;5114103;27;20205;-84
2023/09/13 04:23:15;;;;;;;20.23;12.38;;;23.50;66.40;25.10;101168.00;;;;5104929;27;20301;-85
2023/09/13 04:25:42;;;;;;;16.98;12.70;;;23.50;66.40;25.10;101167.00;;;;5106419;28;20231;-86
2023/09/13 04:28:09;;;;;;;18.13;11.70;;;23.50;66.50;25.10;101175.00;;;;5096665;28;20225;-86
2023/09/13 04:30:36;;;;;;;16.80;12.75;;;23.50;66.50;25.10;101169.00;;;;5102583;28;20198;-87
2023/09/13 04:33:06;;;;;;;16.30;12.13;;;23.40;66.50;25.00;101173.00;;;;5090269;28;20206;-86
2023/09/13 04:35:33;;;;;;;19.50;13.18;;;23.40;66.60;25.00;101172.00;;;;5099255;28;20284;-84
2023/09/13 04:38:00;;;;;;;16.00;11.93;;;23.40;66.50;25.00;101169.00;;;;5108455;28;20201;-86
2023/09/13 04:40:29;;;;;;;17.52;12.95;;;23.40;66.60;25.00;101161.00;;;;5101822;28;20209;-86
2023/09/13 04:43:23;;;;;;;19.60;13.15;;;23.40;66.70;24.90;101167.00;;;;5109846;28;20663;-86
2023/09/13 04:45:52;;;;;;;17.98;12.63;;;23.40;66.70;25.00;101167.00;;;;5111129;28;20193;-86
2023/09/13 04:48:19;;;;;;;15.52;13.18;;;23.40;66.70;25.00;101167.00;;;;5096786;28;20222;-84
2023/09/13 04:50:45;;;;;;;17.88;12.85;;;23.40;66.70;25.00;101170.00;;;;5089835;28;20656;-85
2023/09/13 04:53:13;;;;;;;16.80;12.75;;;23.40;66.70;25.00;101173.00;;;;5108883;28;20301;-85
2023/09/13 04:55:44;;;;;;;18.70;14.02;;;23.40;66.70;24.90;101171.00;;;;5109016;28;20200;-86
2023/09/13 04:58:11;;;;;;;19.20;12.82;;;23.40;66.70;25.00;101169.00;;;;5103127;27;20186;-86
2023/09/13 05:00:40;;;;;;;19.33;14.27;;;23.30;66.70;24.90;101178.00;;;;5100368;28;20686;-85
2023/09/13 05:03:06;;;;;;;18.83;13.73;;;23.30;66.70;24.90;101183.00;;;;5092168;28;20649;-85
2023/09/13 05:05:33;;;;;;;17.98;12.25;;;23.30;66.70;24.90;101179.00;;;;5099803;28;20567;-85
2023/09/13 05:08:00;;;;;;;18.30;13.25;;;23.30;66.70;24.90;101185.00;;;;5091021;28;20691;-86
2023/09/13 05:10:31;;;;;;;18.13;13.32;;;23.30;66.70;24.90;101191.00;;;;5101211;28;20284;-84
2023/09/13 05:13:04;;;;;;;20.77;13.98;;;23.30;66.80;24.90;101190.00;;;;5095558;28;20614;-84
2023/09/13 05:15:31;;;;;;;15.25;11.85;;;23.30;66.80;24.90;101193.00;;;;5089391;28;20202;-85
2023/09/13 05:18:00;;;;;;;19.05;13.90;;;23.30;66.70;24.90;101197.00;;;;5106153;28;20192;-83
2023/09/13 05:20:27;;;;;;;20.00;13.85;;;23.30;66.70;24.90;101196.00;;;;5099561;28;20217;-83
2023/09/13 05:22:54;;;;;;;19.55;13.27;;;23.30;66.70;24.90;101189.00;;;;5099265;28;20190;-83
2023/09/13 05:25:21;;;;;;;20.92;14.68;;;23.20;66.60;24.80;101189.00;;;;5104105;28;20206;-84
2023/09/13 05:27:48;;;;;;;18.30;13.73;;;23.30;66.70;24.80;101193.00;;;;5098791;28;20230;-84
2023/09/13 05:30:16;;;;;;;17.33;13.02;;;23.30;66.70;24.80;101197.00;;;;5119815;27;20198;-83
2023/09/13 05:32:43;;;;;;;20.10;13.02;;;23.20;66.60;24.80;101201.00;;;;5103798;28;20202;-86
2023/09/13 05:35:11;;;;;;;17.70;13.18;;;23.20;66.70;24.80;101196.00;;;;5094401;28;20193;-87
2023/09/13 05:37:39;;;;;;;17.70;13.05;;;23.20;66.80;24.80;101205.00;;;;5089608;28;20202;-85
2023/09/13 05:40:07;;;;;;;17.48;12.80;;;23.20;66.80;24.80;101204.00;;;;5090215;28;20187;-86
2023/09/13 05:42:35;;;;;;;17.45;13.20;;;23.20;66.90;24.80;101205.00;;;;5095670;28;20863;-83
2023/09/13 05:45:02;;;;;;;21.17;13.85;;;23.20;67.00;24.80;101211.00;;;;5105254;28;20246;-84
2023/09/13 05:47:29;;;;;;;18.50;13.18;;;23.20;67.00;24.90;101207.00;;;;5098340;28;20991;-83
2023/09/13 05:49:56;;;;;;;16.45;12.02;;;23.20;67.00;24.90;101215.00;;;;5097683;28;20226;-83
2023/09/13 05:52:25;;;;;;;19.58;13.02;;;23.20;66.90;24.80;101213.00;;;;5107072;28;20201;-82
2023/09/13 05:54:52;;;;;;;19.25;12.80;;;23.20;67.00;24.90;101219.00;;;;5105018;28;20193;-83
2023/09/13 05:57:18;;;;;;;21.27;13.32;;;23.20;67.00;24.90;101234.00;;;;5103298;28;20746;-82
2023/09/13 05:59:45;;;;;;;20.63;12.70;;;23.20;67.00;24.80;101228.00;;;;5104563;28;20224;-84
2023/09/13 06:02:12;;;;;;;18.10;12.57;;;23.20;67.30;24.90;101258.00;;;;5099706;28;20202;-84
2023/09/13 06:04:40;;;;;;;9.27;6.88;;;23.20;67.00;24.80;101248.00;;;;5107527;28;20186;-84
2023/09/13 06:07:09;;;;;;;7.43;5.18;;;23.20;66.70;24.80;101266.00;;;;5100764;28;20194;-82
2023/09/13 06:09:37;;;;;;;5.05;2.42;;;23.20;66.50;24.70;101270.00;;;;5087767;28;20221;-84
2023/09/13 06:12:06;;;;;;;2.80;1.90;;;23.20;66.30;24.60;101282.00;;;;5103950;28;20217;-84
2023/09/13 06:14:33;;;;;;;1.73;1.05;;;23.10;65.90;24.60;101283.00;;;;5107952;28;20204;-81
2023/09/13 06:17:00;;;;;;;2.80;1.23;;;23.00;66.10;24.50;101294.00;;;;5103027;28;20194;-84
2023/09/13 06:19:27;;;;;;;1.85;0.68;;;23.00;65.30;24.40;101286.00;;;;5103134;28;20193;-85
2023/09/13 06:21:54;;;;;;;1.48;0.45;;;22.90;64.90;24.30;101307.00;;;;5112320;28;20200;-85
2023/09/13 06:24:21;;;;;;;1.25;0.40;;;22.80;64.60;24.20;101316.00;;;;5112752;28;20193;-83
2023/09/13 06:26:50;;;;;;;1.83;0.63;;;22.70;64.50;24.00;101315.00;;;;5097255;28;20191;-84
2023/09/13 06:29:17;;;;;;;0.93;0.43;;;22.60;64.50;24.00;101332.00;;;;5113152;28;20221;-83
2023/09/13 06:31:44;;;;;;;1.00;0.38;;;22.50;64.50;23.90;101335.00;;;;5114718;28;20197;-87
2023/09/13 06:34:11;;;;;;;1.67;0.60;;;22.40;64.50;23.80;101336.00;;;;5109202;28;20198;-88
2023/09/13 06:36:38;;;;;;;3.53;0.50;;;22.30;64.50;23.70;101334.00;;;;5094935;28;20194;-90
2023/09/13 06:39:11;;;;;;;1.17;0.40;;;22.20;64.60;23.50;101339.00;;;;5096169;28;20194;-90
2023/09/13 06:41:39;;;;;;;0.75;0.40;;;22.10;64.60;23.50;101351.00;;;;5105215;28;20190;-90
2023/09/13 06:44:09;;;;;;;0.32;0.28;;;22.00;64.60;23.40;101356.00;;;;5105769;28;20277;-89
2023/09/13 06:46:42;;;;;;;0.95;0.45;;;21.90;64.70;23.30;101362.00;;;;5116440;28;20230;-89
2023/09/13 06:49:10;;;;;;;0.45;0.22;;;21.90;64.70;23.30;101368.00;;;;5116072;28;20282;-90
2023/09/13 06:51:37;;;;;;;0.90;0.47;;;21.80;64.80;23.20;101368.00;;;;5114709;28;20212;-90
2023/09/13 06:54:08;;;;;;;1.65;0.32;;;21.70;64.70;23.10;101377.00;;;;5115109;28;20197;-90
2023/09/13 06:56:43;;;;;;;0.70;0.38;;;21.60;65.40;23.00;101393.00;;;;5115552;28;20190;-91
2023/09/13 06:59:12;;;;;;;0.57;0.28;;;21.60;64.90;23.00;101391.00;;;;5107680;28;20198;-90
2023/09/13 07:01:47;;;;;;;0.57;0.25;;;21.50;64.90;22.90;101400.00;;;;5096009;28;20729;-90
2023/09/13 07:04:14;;;;;;;0.60;0.40;;;21.40;64.80;22.90;101411.00;;;;5095604;28;20198;-91
2023/09/13 07:06:41;;;;;;;1.17;0.57;;;21.40;64.90;22.90;101410.00;;;;5095507;28;20248;-90
2023/09/13 07:09:09;;;;;;;0.50;0.30;;;21.30;65.10;22.80;101427.00;;;;5109585;28;20214;-91
2023/09/13 07:11:38;;;;;;;0.63;0.25;;;21.30;65.20;22.80;101428.00;;;;5096687;28;20214;-91
2023/09/13 07:14:07;;;;;;;1.15;0.75;;;21.30;65.30;22.70;101439.00;;;;5096046;28;20665;-91
2023/09/13 07:16:39;;;;;;;0.40;0.30;;;21.20;65.20;22.70;101435.00;;;;5111520;28;20208;-89
2023/09/13 07:19:10;;;;;;;1.25;0.50;;;21.20;65.20;22.60;101442.00;;;;5095194;28;20190;-90
2023/09/13 07:21:38;;;;;;;1.27;0.32;;;21.10;65.20;22.60;101436.00;;;;5105844;28;20194;-91
2023/09/13 07:24:06;;;;;;;1.13;0.50;;;21.10;65.10;22.60;101440.00;;;;5112416;27;20217;-87
2023/09/13 07:26:39;;;;;;;1.52;0.60;;;21.10;65.20;22.50;101444.00;;;;5108890;28;20671;-90
2023/09/13 07:29:07;;;;;;;1.95;0.70;;;21.00;65.20;22.60;101450.00;;;;5113537;28;20223;-90
2023/09/13 07:31:34;;;;;;;1.05;0.43;;;21.00;65.20;22.60;101453.00;;;;5109935;28;20289;-84
2023/09/13 07:34:03;;;;;;;1.55;0.80;;;21.00;65.30;22.60;101453.00;;;;5110714;28;20651;-85
2023/09/13 07:36:30;;;;;;;2.33;1.10;;;20.90;65.20;22.60;101457.00;;;;5111436;28;20198;-84
2023/09/13 07:38:59;;;;;;;1.13;0.50;;;20.90;65.30;22.60;101449.00;;;;5111633;28;20201;-85
2023/09/13 07:41:27;;;;;;;1.48;0.68;;;20.90;65.20;22.60;101457.00;;;;5107847;28;20808;-86
2023/09/13 07:43:54;;;;;;;1.85;1.00;;;21.00;65.30;22.60;101466.00;;;;5097030;28;20204;-84
2023/09/13 07:46:22;;;;;;;1.67;0.80;;;20.90;65.30;22.60;101467.00;;;;5110691;28;20225;-85
2023/09/13 07:48:49;;;;;;;4.18;0.90;;;20.90;65.30;22.60;101483.00;;;;5111221;28;20338;-85
2023/09/13 07:51:17;;;;;;;3.97;0.93;;;20.90;65.20;22.60;101483.00;;;;5101666;28;20202;-85
2023/09/13 07:53:45;;;;;;;2.05;0.85;;;21.00;65.10;22.60;101487.00;;;;5109547;28;20567;-86
2023/09/13 07:56:15;;;;;;;1.95;1.15;;;21.00;65.00;22.70;101480.00;;;;5110423;28;20675;-87
2023/09/13 07:58:42;;;;;;;3.00;1.10;;;21.00;65.10;22.70;101490.00;;;;5110718;28;20201;-88
2023/09/13 08:01:09;;;;;;;2.13;1.13;;;21.00;65.10;22.80;101490.00;;;;5112248;28;20229;-90
2023/09/13 08:03:36;;;;;;;2.35;1.05;;;21.00;65.10;22.80;101497.00;;;;5111503;28;20673;-88
2023/09/13 08:06:04;;;;;;;1.95;0.80;;;21.10;65.40;22.90;101503.00;;;;5100635;28;20217;-89
2023/09/13 08:08:33;;;;;;;1.55;0.90;;;21.10;65.40;22.90;101509.00;;;;5091535;28;20198;-89
2023/09/13 08:11:00;;;;;;;2.67;1.10;;;21.20;65.20;23.00;101512.00;;;;5103499;28;20218;-87
2023/09/13 08:13:28;;;;;;;1.63;1.25;;;21.20;65.20;23.10;101526.00;;;;5111401;28;20205;-90
2023/09/13 08:15:55;;;;;;;2.40;1.20;;;21.30;65.20;23.20;101527.00;;;;5103017;28;20583;-87
2023/09/13 08:18:23;;;;;;;10.18;1.40;;;21.40;65.10;23.20;101523.00;;;;5097244;28;20974;-87
2023/09/13 08:20:51;;;;;;;3.00;1.15;;;21.40;64.90;23.30;101524.00;;;;5106957;28;20211;-88
2023/09/13 08:23:18;;;;;;;3.40;1.05;;;21.50;64.70;23.30;101520.00;;;;5110586;28;20201;-88
2023/09/13 08:25:46;;;;;;;2.40;0.77;;;21.60;64.50;23.40;101529.00;;;;5111421;28;20208;-87
2023/09/13 08:28:13;;;;;;;3.42;0.82;;;21.60;64.30;23.40;101536.00;;;;5112492;28;20197;-90
2023/09/13 08:30:41;;;;;;;2.42;1.05;;;21.70;64.90;23.50;101541.00;;;;5111491;28;20224;-90
2023/09/13 08:33:10;;;;;;;2.05;0.98;;;21.70;64.10;23.50;101550.00;;;;5103691;27;20594;-90
2023/09/13 08:35:38;;;;;;;2.72;0.80;;;21.80;64.20;23.60;101554.00;;;;5106241;28;20194;-86
2023/09/13 08:38:06;;;;;;;3.75;1.25;;;21.90;64.10;23.70;101563.00;;;;5109598;28;20194;-86
2023/09/13 08:40:34;;;;;;;2.03;0.98;;;21.90;64.00;23.80;101567.00;;;;5098073;28;20213;-87
2023/09/13 08:43:04;;;;;;;1.10;0.80;;;22.00;64.30;23.90;101563.00;;;;5109687;28;20201;-86
2023/09/13 08:45:36;;;;;;;1.67;0.70;;;22.10;64.40;24.00;101564.00;;;;5108427;28;20202;-85
2023/09/13 08:48:04;;;;;;;1.80;1.10;;;22.20;64.30;24.10;101567.00;;;;5110049;28;20201;-87
2023/09/13 08:50:34;;;;;;;2.67;0.80;;;22.30;63.80;24.20;101564.00;;;;5097911;28;20217;-87
2023/09/13 08:53:05;;;;;;;3.42;1.00;;;22.40;63.50;24.30;101552.00;;;;5108084;28;20185;-88
2023/09/13 08:55:34;;;;;;;2.15;0.82;;;22.50;63.50;24.40;101574.00;;;;5104148;28;20643;-88
2023/09/13 08:58:03;;;;;;;2.20;1.10;;;22.60;63.20;24.50;101568.00;;;;5108889;28;20201;-87
2023/09/13 09:00:37;;;;;;;2.50;0.93;;;22.70;62.90;24.50;101564.00;;;;5108944;28;20582;-88
2023/09/13 09:03:07;;;;;;;1.15;0.73;;;22.80;62.50;24.60;101571.00;;;;5112527;28;20201;-90
2023/09/13 09:05:38;;;;;;;1.45;0.85;;;22.80;62.50;24.60;101566.00;;;;5106204;28;20190;-88
2023/09/13 09:08:07;;;;;;;1.42;0.70;;;22.90;62.30;24.70;101566.00;;;;5113090;28;20197;-92
2023/09/13 09:10:42;;;;;;;2.05;1.15;;;23.00;62.10;24.80;101600.00;;;;5111474;28;20225;-89
2023/09/13 09:13:12;;;;;;;3.50;0.98;;;23.10;61.70;24.90;101613.00;;;;5111600;28;20204;-89
2023/09/13 09:15:41;;;;;;;2.08;1.02;;;23.20;61.90;25.00;101619.00;;;;5108070;28;20194;-91
2023/09/13 09:18:11;;;;;;;1.55;0.63;;;23.30;62.20;25.10;101617.00;;;;5110701;28;20695;-88
2023/09/13 09:20:41;;;;;;;1.67;0.85;;;23.40;62.00;25.20;101626.00;;;;5109947;28;20205;-87
2023/09/13 09:23:11;;;;;;;1.55;0.70;;;23.50;61.90;25.30;101626.00;;;;5108449;28;20217;-90
2023/09/13 09:25:43;;;;;;;2.33;1.27;;;23.60;61.80;25.40;101637.00;;;;5102636;28;20232;-88
2023/09/13 09:28:12;;;;;;;3.60;0.88;;;23.70;61.80;25.50;101655.00;;;;5107677;28;20716;-86
2023/09/13 09:30:40;;;;;;;2.22;0.70;;;23.70;61.40;25.60;101650.00;;;;5103016;28;20729;-87
2023/09/13 09:33:07;;;;;;;2.40;0.90;;;23.80;61.10;25.60;101651.00;;;;5108199;28;20549;-88
2023/09/13 09:35:36;;;;;;;1.48;0.80;;;24.00;60.90;25.70;101661.00;;;;5096797;28;20198;-86
2023/09/13 09:38:04;;;;;;;1.30;0.68;;;24.00;60.80;25.80;101671.00;;;;5105825;28;20201;-87
2023/09/13 09:40:38;;;;;;;1.30;0.80;;;24.20;60.90;25.90;101675.00;;;;5104045;28;20202;-85
2023/09/13 09:43:05;;;;;;;1.95;0.77;;;24.20;60.00;26.00;101680.00;;;;5106487;28;20246;-87
2023/09/13 09:45:33;;;;;;;1.85;0.95;;;24.40;59.90;26.00;101687.00;;;;5097631;28;20206;-88
2023/09/13 09:48:02;;;;;;;1.60;0.95;;;24.40;59.60;26.10;101676.00;;;;5096699;28;20209;-89
2023/09/13 09:50:32;;;;;;;1.88;0.90;;;24.50;59.40;26.20;101687.00;;;;5107954;28;20790;-86
2023/09/13 09:52:59;;;;;;;1.90;0.70;;;24.60;59.80;26.20;101683.00;;;;5110367;28;20216;-87
2023/09/13 09:55:27;;;;;;;1.52;0.95;;;24.60;59.10;26.20;101690.00;;;;5099169;28;20572;-85
2023/09/13 09:57:55;;;;;;;1.95;1.05;;;24.60;58.70;26.20;101685.00;;;;5098621;28;20651;-88
2023/09/13 10:00:22;;;;;;;1.40;0.68;;;24.70;58.50;26.30;101686.00;;;;5104364;28;20218;-87
2023/09/13 10:02:51;;;;;;;2.45;0.82;;;24.70;58.60;26.30;101680.00;;;;5103690;28;20232;-88
2023/09/13 10:05:18;;;;;;;1.92;1.08;;;24.70;58.40;26.40;101685.00;;;;5097719;28;20197;-86
2023/09/13 10:07:54;;;;;;;2.30;1.00;;;24.80;58.70;26.40;101682.00;;;;5095987;28;20252;-86
2023/09/13 10:10:33;;;;;;;3.60;1.30;;;24.90;58.10;26.40;101693.00;;;;5090104;28;20229;-88
2023/09/13 10:13:00;;;;;;;2.63;1.50;;;24.90;57.80;26.40;101699.00;;;;5095114;28;20611;-88
2023/09/13 10:15:29;;;;;;;2.15;1.20;;;24.90;57.60;26.40;101693.00;;;;5092540;28;20198;-89
2023/09/13 10:18:03;;;;;;;2.58;1.42;;;24.90;57.00;26.20;101699.00;;;;5104023;28;20228;-88
2023/09/13 10:20:34;;;;;;;1.25;1.00;;;24.80;56.50;26.20;101705.00;;;;5103397;28;20205;-88
2023/09/13 10:23:12;;;;;;;4.25;1.30;;;24.80;56.70;26.00;101715.00;;;;5107981;28;20205;-88
2023/09/13 10:25:41;;;;;;;3.35;1.10;;;24.70;56.10;26.10;101710.00;;;;5110114;28;20197;-88
2023/09/13 10:28:13;;;;;;;1.40;0.82;;;24.60;56.70;26.00;101725.00;;;;5093775;28;20194;-86
2023/09/13 10:30:49;;;;;;;1.60;0.93;;;24.50;56.90;26.00;101723.00;;;;5106044;28;20225;-86
2023/09/13 10:33:22;;;;;;;1.77;1.10;;;24.50;56.90;26.00;101724.00;;;;5106300;28;20190;-87
2023/09/13 10:35:54;;;;;;;3.45;1.50;;;24.50;57.00;26.10;101735.00;;;;5108492;28;20205;-85
2023/09/13 10:38:32;;;;;;;1.77;1.15;;;24.50;57.20;26.10;101729.00;;;;5106154;28;20225;-85
2023/09/13 10:41:06;;;;;;;3.47;1.27;;;24.60;57.20;26.10;101726.00;;;;5107876;28;20202;-85
2023/09/13 10:43:33;;;;;;;2.13;1.23;;;24.60;57.10;26.30;101724.00;;;;5089914;28;20568;-85
2023/09/13 10:46:02;;;;;;;1.33;0.80;;;24.60;57.20;26.30;101723.00;;;;5107288;28;20198;-86
2023/09/13 10:48:32;;;;;;;3.10;1.17;;;24.70;57.50;26.40;101728.00;;;;5101225;28;20690;-86
2023/09/13 10:51:00;;;;;;;1.67;1.00;;;24.80;57.40;26.60;101740.00;;;;5096811;28;20226;-86
2023/09/13 10:53:27;;;;;;;2.90;0.82;;;24.90;57.40;26.70;101739.00;;;;5107210;28;20549;-86